Time;durP1;ratioP1;P1;durP2;ratioP2;P2;SDS_P1;SDS_P2;PMS_P1;PMS_P2;Temp;Humidity;BMP_temperature;BMP_pressure;BME280_temperature;BME280_humidity;BME280_pressure;Samples;Min_cycle;Max_cycle;Signal;HPM_P1;HPM_P2
2023/10/31 00:04:08;;;;;;;;;;;12.40;99.90;;;;;;6750475;88;20076;-81
2023/10/31 00:14:29;;;;;;;;;;;12.20;99.90;;;;;;6739164;77;20105;-78
2023/10/31 00:24:31;;;;;;;;;;;12.20;99.90;;;;;;6729073;88;20552;-77
2023/10/31 00:34:32;;;;;;;;;;;12.20;99.90;;;;;;6725412;88;20059;-80
2023/10/31 00:44:32;;;;;;;;;;;12.00;99.90;;;;;;6722787;88;20101;-80
2023/10/31 00:54:33;;;;;;;;;;;11.90;99.90;;;;;;6723742;88;20076;-80
2023/10/31 01:04:35;;;;;;;;;;;11.90;99.90;;;;;;6718649;88;20133;-79
2023/10/31 01:14:35;;;;;;;;;;;11.90;99.90;;;;;;6705622;88;20076;-80
2023/10/31 01:24:36;;;;;;;;;;;11.80;99.90;;;;;;6728898;88;20035;-80
2023/10/31 01:34:39;;;;;;;;;;;11.60;99.90;;;;;;6732626;88;20055;-80
2023/10/31 01:44:39;;;;;;;;;;;11.30;99.90;;;;;;6708855;88;20482;-78
2023/10/31 01:54:40;;;;;;;;;;;11.20;99.90;;;;;;6710229;88;20189;-78
2023/10/31 02:04:40;;;;;;;;;;;11.10;99.90;;;;;;6721099;88;20055;-78
2023/10/31 02:14:41;;;;;;;;;;;11.00;99.90;;;;;;6711917;88;20110;-79
2023/10/31 02:24:41;;;;;;;;;;;10.90;99.90;;;;;;6707336;88;20059;-79
2023/10/31 02:34:42;;;;;;;;;;;10.70;99.90;;;;;;6707749;88;20063;-80
2023/10/31 02:44:42;;;;;;;;;;;10.70;99.90;;;;;;6720371;88;20055;-78
2023/10/31 02:54:43;;;;;;;;;;;10.60;99.90;;;;;;6707684;88;20059;-78
2023/10/31 03:04:43;;;;;;;;;;;10.40;99.90;;;;;;6702752;88;20059;-78
2023/10/31 03:14:43;;;;;;;;;;;10.40;99.90;;;;;;6723896;88;20070;-78
2023/10/31 03:24:44;;;;;;;;;;;10.50;99.90;;;;;;6725104;88;20529;-79
2023/10/31 03:34:44;;;;;;;;;;;10.50;99.90;;;;;;6724031;88;20086;-78
2023/10/31 03:44:45;;;;;;;;;;;10.50;99.90;;;;;;6723456;88;20469;-78
2023/10/31 03:54:45;;;;;;;;;;;10.50;99.90;;;;;;6723471;88;20100;-78
2023/10/31 04:04:46;;;;;;;;;;;10.30;99.90;;;;;;6723598;88;20132;-78
2023/10/31 04:14:46;;;;;;;;;;;10.30;99.90;;;;;;6710331;88;20489;-78
2023/10/31 04:24:46;;;;;;;;;;;10.50;99.90;;;;;;6706071;88;20154;-79
2023/10/31 04:34:47;;;;;;;;;;;10.50;99.90;;;;;;6708666;88;20198;-79
2023/10/31 04:44:48;;;;;;;;;;;10.50;99.90;;;;;;6709656;88;20097;-78
2023/10/31 04:54:48;;;;;;;;;;;10.60;99.90;;;;;;6723701;88;20070;-79
2023/10/31 05:04:52;;;;;;;;;;;10.70;99.90;;;;;;6727300;88;20069;-78
2023/10/31 05:14:52;;;;;;;;;;;10.80;99.90;;;;;;6730135;88;20511;-78
2023/10/31 05:24:53;;;;;;;;;;;11.10;99.90;;;;;;6719425;88;20050;-78
2023/10/31 05:34:54;;;;;;;;;;;11.10;99.90;;;;;;6707176;88;20063;-77
2023/10/31 05:44:55;;;;;;;;;;;11.10;99.90;;;;;;6719392;88;20075;-79
2023/10/31 05:54:56;;;;;;;;;;;11.00;99.90;;;;;;6714882;88;20056;-80
2023/10/31 06:04:56;;;;;;;;;;;11.10;99.90;;;;;;6717773;88;20137;-78
2023/10/31 06:25:38;;;;;;;;;;;11.10;99.90;;;;;;6609049;89;20188;-82
2023/10/31 06:35:39;;;;;;;;;;;11.10;99.90;;;;;;6607324;89;20536;-79
2023/10/31 06:45:41;;;;;;;;;;;11.20;99.90;;;;;;6633332;89;20084;-78
2023/10/31 06:55:41;;;;;;;;;;;11.30;99.90;;;;;;6627999;89;20059;-80
2023/10/31 07:05:41;;;;;;;;;;;11.30;99.90;;;;;;6616018;89;20155;-79
2023/10/31 07:15:42;;;;;;;;;;;11.30;99.90;;;;;;6605168;89;20568;-79
2023/10/31 07:25:43;;;;;;;;;;;11.20;99.90;;;;;;6609843;89;20078;-80
2023/10/31 07:35:43;;;;;;;;;;;11.20;99.90;;;;;;6619350;89;20856;-80
2023/10/31 07:45:44;;;;;;;;;;;11.10;99.90;;;;;;6590609;90;20112;-80
2023/10/31 07:55:44;;;;;;;;;;;11.00;99.90;;;;;;6643037;89;20549;-79
2023/10/31 08:05:45;;;;;;;;;;;11.50;99.90;;;;;;6609703;90;20089;-81
2023/10/31 08:15:45;;;;;;;;;;;12.40;99.90;;;;;;6688177;88;20087;-81
2023/10/31 08:25:46;;;;;;;;;;;12.50;99.90;;;;;;6707286;88;20036;-81
2023/10/31 08:35:47;;;;;;;;;;;13.00;99.90;;;;;;6622695;89;20073;-82
2023/10/31 08:45:48;;;;;;;;;;;13.00;99.90;;;;;;6618285;89;20110;-83
2023/10/31 08:55:48;;;;;;;;;;;12.80;99.90;;;;;;6619157;89;20748;-82
2023/10/31 09:05:49;;;;;;;;;;;12.80;99.90;;;;;;6621582;90;20107;-83
2023/10/31 09:15:49;;;;;;;;;;;13.00;99.90;;;;;;6623784;89;20583;-82
2023/10/31 09:25:50;;;;;;;;;;;13.20;99.90;;;;;;6625940;89;20063;-84
2023/10/31 09:35:50;;;;;;;;;;;13.00;99.90;;;;;;6624365;90;20694;-81
2023/10/31 09:45:52;;;;;;;;;;;13.10;99.90;;;;;;6624052;90;20063;-82
2023/10/31 09:55:53;;;;;;;;;;;13.30;99.90;;;;;;6625179;90;20059;-82
2023/10/31 10:05:54;;;;;;;;;;;13.70;99.90;;;;;;6625968;89;20114;-84
2023/10/31 10:15:55;;;;;;;;;;;14.80;99.90;;;;;;6626258;89;20050;-86
2023/10/31 10:25:57;;;;;;;;;;;16.20;99.90;;;;;;6625261;89;20060;-86
2023/10/31 10:35:58;;;;;;;;;;;16.20;99.90;;;;;;6644049;89;20035;-85
2023/10/31 10:45:59;;;;;;;;;;;15.60;99.90;;;;;;6645399;89;20098;-85
2023/10/31 10:56:05;;;;;;;;;;;15.60;99.90;;;;;;6645687;89;20750;-82
2023/10/31 11:06:06;;;;;;;;;;;15.10;99.90;;;;;;6645253;89;20732;-84
2023/10/31 11:16:10;;;;;;;;;;;14.90;99.90;;;;;;6644943;89;20133;-83
2023/10/31 11:26:11;;;;;;;;;;;14.60;99.90;;;;;;6612912;89;20052;-86
2023/10/31 11:36:11;;;;;;;;;;;14.60;99.90;;;;;;6611687;89;20150;-84
2023/10/31 11:46:19;;;;;;;;;;;14.80;99.90;;;;;;6606726;90;20118;-81
2023/10/31 11:56:20;;;;;;;;;;;15.70;99.90;;;;;;6594904;90;20091;-82
2023/10/31 12:06:21;;;;;;;;;;;15.60;99.90;;;;;;6598650;90;20569;-81
2023/10/31 12:16:25;;;;;;;;;;;16.20;99.90;;;;;;6608079;90;20061;-82
2023/10/31 12:26:26;;;;;;;;;;;16.70;99.90;;;;;;6601984;90;20068;-82
2023/10/31 12:36:47;;;;;;;;;;;17.70;99.90;;;;;;6687879;77;20047;-82
2023/10/31 12:46:47;;;;;;;;;;;18.00;99.90;;;;;;6631484;89;20064;-82
2023/10/31 12:56:48;;;;;;;;;;;19.20;99.90;;;;;;6634176;89;20061;-82
2023/10/31 13:07:02;;;;;;;;;;;19.40;99.90;;;;;;6635327;89;20648;-82
2023/10/31 13:17:03;;;;;;;;;;;20.10;99.90;;;;;;6625262;89;20092;-82
2023/10/31 13:27:03;;;;;;;;;;;19.30;99.90;;;;;;6625242;89;20096;-81
2023/10/31 13:37:04;;;;;;;;;;;20.10;99.90;;;;;;6717007;88;20076;-81
2023/10/31 13:47:05;;;;;;;;;;;20.00;99.90;;;;;;6717797;88;20116;-82
2023/10/31 13:57:05;;;;;;;;;;;18.30;99.90;;;;;;6717151;88;20048;-82
2023/10/31 14:07:06;;;;;;;;;;;17.90;99.90;;;;;;6716979;88;20029;-80
2023/10/31 14:17:06;;;;;;;;;;;17.40;99.90;;;;;;6716670;88;20106;-81
2023/10/31 14:27:06;;;;;;;;;;;16.20;99.90;;;;;;6714118;88;20781;-84
2023/10/31 14:37:07;;;;;;;;;;;15.60;99.90;;;;;;6712667;88;20067;-85
2023/10/31 14:47:07;;;;;;;;;;;15.20;99.90;;;;;;6711653;88;21276;-83
2023/10/31 14:57:08;;;;;;;;;;;14.90;99.90;;;;;;6712208;88;20626;-84
2023/10/31 15:07:08;;;;;;;;;;;15.00;99.90;;;;;;6717149;88;20525;-85
2023/10/31 15:17:09;;;;;;;;;;;14.90;99.90;;;;;;6716165;88;20226;-85
2023/10/31 15:27:09;;;;;;;;;;;14.90;99.90;;;;;;6715931;88;20259;-86
2023/10/31 15:37:11;;;;;;;;;;;14.60;99.90;;;;;;6715492;88;20061;-84
2023/10/31 15:47:12;;;;;;;;;;;14.40;99.90;;;;;;6713283;88;20049;-82
2023/10/31 15:57:17;;;;;;;;;;;14.30;99.90;;;;;;6716314;88;20099;-83
2023/10/31 16:07:17;;;;;;;;;;;14.10;99.90;;;;;;6715624;88;20062;-84
2023/10/31 16:17:18;;;;;;;;;;;13.90;99.90;;;;;;6713418;88;20055;-85
2023/10/31 16:27:21;;;;;;;;;;;13.40;99.90;;;;;;6713611;88;20106;-84
2023/10/31 16:37:21;;;;;;;;;;;13.40;99.90;;;;;;6714039;88;20621;-84
2023/10/31 17:07:52;;;;;;;;;;;12.50;99.90;;;;;;6712032;78;20037;-85
2023/10/31 17:17:53;;;;;;;;;;;12.30;99.90;;;;;;6633001;88;20676;-85
2023/10/31 17:27:53;;;;;;;;;;;12.30;99.90;;;;;;6663590;89;20109;-84
2023/10/31 17:37:53;;;;;;;;;;;12.20;99.90;;;;;;6662253;89;20829;-85
2023/10/31 18:09:00;;;;;;;;;;;12.10;99.90;;;;;;6903382;78;20105;-83
2023/10/31 18:39:52;;;;;;;;;;;11.90;99.90;;;;;;6676324;88;20074;-82
2023/10/31 18:49:52;;;;;;;;;;;11.80;99.90;;;;;;6747271;88;20064;-81
2023/10/31 18:59:53;;;;;;;;;;;11.80;99.90;;;;;;6737188;88;20135;-82
2023/10/31 19:09:54;;;;;;;;;;;11.70;99.90;;;;;;6732081;88;20047;-82
2023/10/31 19:19:54;;;;;;;;;;;11.60;99.90;;;;;;6678282;88;20034;-80
2023/10/31 19:29:57;;;;;;;;;;;11.60;99.90;;;;;;6663941;88;20660;-83
2023/10/31 19:39:57;;;;;;;;;;;11.80;99.90;;;;;;6663242;88;20686;-82
2023/10/31 19:49:58;;;;;;;;;;;11.90;99.90;;;;;;6659732;88;20041;-81
2023/10/31 19:59:58;;;;;;;;;;;11.80;99.90;;;;;;6706020;88;20121;-82
2023/10/31 20:09:58;;;;;;;;;;;11.80;99.90;;;;;;6628998;88;20661;-81
2023/10/31 20:19:59;;;;;;;;;;;11.80;99.90;;;;;;6628906;89;20207;-80
2023/10/31 20:30:01;;;;;;;;;;;11.90;99.90;;;;;;6656403;89;20069;-80
2023/10/31 20:40:02;;;;;;;;;;;11.90;99.90;;;;;;6658450;88;20111;-79
2023/10/31 20:50:05;;;;;;;;;;;11.60;99.90;;;;;;6659085;89;20085;-79
2023/10/31 21:00:08;;;;;;;;;;;11.50;99.90;;;;;;6659540;88;20215;-80
2023/10/31 21:10:08;;;;;;;;;;;11.50;99.90;;;;;;6677313;88;20073;-80
2023/10/31 21:20:09;;;;;;;;;;;11.50;99.90;;;;;;6662339;89;20187;-80
2023/10/31 21:30:10;;;;;;;;;;;11.50;99.90;;;;;;6666302;89;20087;-81
2023/10/31 21:40:11;;;;;;;;;;;11.50;99.90;;;;;;6667542;89;20053;-81
2023/10/31 21:50:11;;;;;;;;;;;11.60;99.90;;;;;;6672611;88;20111;-80
2023/10/31 22:00:12;;;;;;;;;;;11.60;99.90;;;;;;6664188;89;20579;-79
2023/10/31 22:10:12;;;;;;;;;;;11.50;99.90;;;;;;6665005;89;20064;-79
2023/10/31 22:20:13;;;;;;;;;;;11.50;99.90;;;;;;6666256;89;20106;-80
2023/10/31 22:30:15;;;;;;;;;;;11.60;99.90;;;;;;6669835;89;20084;-81
2023/10/31 22:40:15;;;;;;;;;;;11.60;99.90;;;;;;6669470;89;20065;-81
2023/10/31 22:50:16;;;;;;;;;;;11.70;99.90;;;;;;6672786;89;20084;-80
2023/10/31 23:00:20;;;;;;;;;;;11.60;99.90;;;;;;6668898;89;20057;-80
2023/10/31 23:10:21;;;;;;;;;;;11.60;99.90;;;;;;6687744;88;20053;-81
2023/10/31 23:20:22;;;;;;;;;;;11.60;99.90;;;;;;6675247;88;20100;-81
2023/10/31 23:30:22;;;;;;;;;;;11.60;99.90;;;;;;6668551;89;20110;-80
2023/10/31 23:40:23;;;;;;;;;;;11.60;99.90;;;;;;6667539;89;20089;-81
2023/10/31 23:50:23;;;;;;;;;;;11.60;99.90;;;;;;6665382;89;20095;-80
